Time;durP1;ratioP1;P1;durP2;ratioP2;P2;SDS_P1;SDS_P2;PMS_P1;PMS_P2;Temp;Humidity;BMP_temperature;BMP_pressure;BME280_temperature;BME280_humidity;BME280_pressure;Samples;Min_cycle;Max_cycle;Signal;HPM_P1;HPM_P2
2022/04/17 00:00:15;;;;;;;4.78;3.10;;;;;;;;;;5015287;28;20050;-66
2022/04/17 00:02:41;;;;;;;4.85;3.13;;;;;;;;;;5030539;28;20034;-66
2022/04/17 00:05:07;;;;;;;4.85;3.20;;;;;;;;;;5015477;28;20057;-66
2022/04/17 00:07:33;;;;;;;5.63;3.20;;;;;;;;;;5015415;28;20037;-66
2022/04/17 00:10:00;;;;;;;5.30;3.17;;;;;;;;;;5015160;28;20041;-66
2022/04/17 00:12:26;;;;;;;5.53;3.10;;;;;;;;;;5015336;28;20053;-66
2022/04/17 00:14:53;;;;;;;5.15;3.08;;;;;;;;;;5014905;28;20125;-66
2022/04/17 00:17:20;;;;;;;4.72;3.38;;;;;;;;;;5015149;28;20527;-66
2022/04/17 00:19:46;;;;;;;4.07;3.20;;;;;;;;;;5015175;28;20048;-66
2022/04/17 00:22:13;;;;;;;5.13;3.38;;;;;;;;;;5015065;28;20085;-66
2022/04/17 00:24:39;;;;;;;4.55;3.17;;;;;;;;;;5014764;28;20512;-66
2022/04/17 00:27:05;;;;;;;5.65;3.20;;;;;;;;;;5015160;28;20519;-66
2022/04/17 00:29:31;;;;;;;5.90;3.50;;;;;;;;;;5015149;28;20125;-66
2022/04/17 00:31:57;;;;;;;4.90;3.35;;;;;;;;;;5015025;28;20072;-66
2022/04/17 00:34:23;;;;;;;4.88;3.25;;;;;;;;;;5014586;28;20033;-66
2022/04/17 00:36:49;;;;;;;4.80;3.20;;;;;;;;;;5014714;28;20456;-66
2022/04/17 00:39:15;;;;;;;5.40;3.22;;;;;;;;;;5014506;28;20505;-66
2022/04/17 00:41:41;;;;;;;6.85;3.60;;;;;;;;;;5014588;28;20107;-66
2022/04/17 00:44:11;;;;;;;5.25;3.50;;;;;;;;;;5014528;28;20378;-66
2022/04/17 00:46:38;;;;;;;6.15;3.85;;;;;;;;;;5014738;28;20038;-66
2022/04/17 00:49:04;;;;;;;4.47;3.30;;;;;;;;;;5014788;28;20049;-66
2022/04/17 00:51:31;;;;;;;5.50;3.70;;;;;;;;;;5014336;28;20046;-66
2022/04/17 00:53:57;;;;;;;4.93;3.50;;;;;;;;;;5013962;28;20057;-66
2022/04/17 00:56:25;;;;;;;5.55;4.13;;;;;;;;;;5014547;28;20052;-66
2022/04/17 00:58:52;;;;;;;5.90;3.63;;;;;;;;;;5014054;28;20532;-67
2022/04/17 01:01:18;;;;;;;5.20;3.55;;;;;;;;;;5014281;28;20081;-66
2022/04/17 01:03:44;;;;;;;5.32;3.78;;;;;;;;;;5014235;28;20044;-66
2022/04/17 01:06:10;;;;;;;5.13;3.83;;;;;;;;;;5014001;28;20046;-66
2022/04/17 01:08:41;;;;;;;4.50;3.58;;;;;;;;;;5014019;28;20068;-66
2022/04/17 01:11:07;;;;;;;5.40;3.70;;;;;;;;;;5013668;28;20398;-66
2022/04/17 01:13:34;;;;;;;5.93;4.20;;;;;;;;;;5012739;28;20405;-66
2022/04/17 01:16:03;;;;;;;5.25;3.58;;;;;;;;;;5014509;28;20085;-66
2022/04/17 01:18:29;;;;;;;6.40;3.80;;;;;;;;;;5014463;28;20046;-66
2022/04/17 01:20:55;;;;;;;5.57;3.80;;;;;;;;;;5013780;28;20042;-66
2022/04/17 01:28:50;;;;;;;5.22;3.85;;;;;;;;;;5014635;28;20416;-66
2022/04/17 01:31:16;;;;;;;4.90;3.85;;;;;;;;;;5014348;28;20515;-66
2022/04/17 01:33:42;;;;;;;5.43;4.35;;;;;;;;;;5013824;28;20038;-66
2022/04/17 01:36:08;;;;;;;5.30;4.00;;;;;;;;;;5013630;28;20052;-66
2022/04/17 01:38:36;;;;;;;4.65;3.90;;;;;;;;;;5013686;28;20042;-66
2022/04/17 01:41:02;;;;;;;6.20;4.40;;;;;;;;;;4995950;28;20046;-66
2022/04/17 01:43:28;;;;;;;5.07;4.05;;;;;;;;;;5012194;28;20119;-66
2022/04/17 01:45:54;;;;;;;5.05;4.07;;;;;;;;;;5013251;28;20054;-66
2022/04/17 01:48:20;;;;;;;6.18;4.30;;;;;;;;;;5013999;28;20073;-66
2022/04/17 01:50:47;;;;;;;6.07;4.53;;;;;;;;;;5013213;28;20125;-66
2022/04/17 01:53:12;;;;;;;5.72;4.50;;;;;;;;;;5006920;28;20077;-66
2022/04/17 01:55:38;;;;;;;5.50;4.43;;;;;;;;;;5013719;28;20532;-66
2022/04/17 01:58:05;;;;;;;6.55;4.70;;;;;;;;;;5013250;28;20115;-66
2022/04/17 02:00:31;;;;;;;5.88;4.38;;;;;;;;;;5013274;28;20046;-66
2022/04/17 02:02:57;;;;;;;5.63;4.57;;;;;;;;;;5013300;28;20572;-66
2022/04/17 02:05:23;;;;;;;6.28;4.88;;;;;;;;;;5013278;28;20034;-66
2022/04/17 02:07:49;;;;;;;5.82;4.57;;;;;;;;;;5013144;28;20475;-67
2022/04/17 02:10:19;;;;;;;6.25;5.20;;;;;;;;;;5013089;28;20121;-66
2022/04/17 02:12:46;;;;;;;6.43;4.68;;;;;;;;;;5013395;28;20528;-66
2022/04/17 02:15:14;;;;;;;6.22;4.65;;;;;;;;;;5013040;28;20074;-66
2022/04/17 02:17:41;;;;;;;6.30;5.22;;;;;;;;;;5012872;28;20409;-66
2022/04/17 02:20:08;;;;;;;5.80;4.72;;;;;;;;;;5013141;28;20060;-66
2022/04/17 02:22:34;;;;;;;5.75;5.25;;;;;;;;;;5013087;28;20042;-66
2022/04/17 02:25:00;;;;;;;6.32;5.30;;;;;;;;;;5012923;28;20045;-66
2022/04/17 02:27:26;;;;;;;6.75;5.35;;;;;;;;;;5013228;28;20453;-66
2022/04/17 02:29:52;;;;;;;6.35;5.50;;;;;;;;;;5013592;28;20042;-66
2022/04/17 02:32:18;;;;;;;6.10;5.35;;;;;;;;;;5013121;28;20433;-66
2022/04/17 02:34:44;;;;;;;6.63;5.32;;;;;;;;;;5013095;28;20125;-66
2022/04/17 02:37:10;;;;;;;7.35;5.75;;;;;;;;;;5013157;28;20124;-66
2022/04/17 02:39:37;;;;;;;6.78;5.80;;;;;;;;;;5013074;28;20121;-66
2022/04/17 02:42:03;;;;;;;6.55;5.43;;;;;;;;;;5012767;28;20050;-66
2022/04/17 02:44:29;;;;;;;6.85;5.30;;;;;;;;;;5013503;28;20124;-66
2022/04/17 02:49:40;;;;;;;6.60;5.90;;;;;;;;;;5012951;28;20401;-66
2022/04/17 02:52:06;;;;;;;6.18;5.57;;;;;;;;;;5012559;28;20041;-67
2022/04/17 02:54:32;;;;;;;7.07;5.70;;;;;;;;;;5012910;28;20050;-67
2022/04/17 02:56:58;;;;;;;7.57;6.25;;;;;;;;;;5012620;28;20052;-67
2022/04/17 02:59:24;;;;;;;6.85;6.03;;;;;;;;;;5013061;28;20053;-66
2022/04/17 03:07:20;;;;;;;7.97;7.13;;;;;;;;;;5016596;28;20576;-66
2022/04/17 03:09:45;;;;;;;7.07;6.38;;;;;;;;;;5016507;28;20049;-66
2022/04/17 03:12:11;;;;;;;7.63;6.82;;;;;;;;;;5016530;28;20050;-66
2022/04/17 03:14:37;;;;;;;7.50;6.65;;;;;;;;;;5016514;28;20048;-66
2022/04/17 03:17:06;;;;;;;8.15;7.00;;;;;;;;;;5016430;28;20413;-66
2022/04/17 03:19:32;;;;;;;7.53;6.70;;;;;;;;;;5016214;28;20448;-66
2022/04/17 03:21:58;;;;;;;7.78;6.65;;;;;;;;;;5016095;28;20053;-66
2022/04/17 03:24:24;;;;;;;7.75;6.88;;;;;;;;;;5016183;28;20049;-66
2022/04/17 03:26:50;;;;;;;8.13;7.10;;;;;;;;;;5016292;28;20037;-66
2022/04/17 03:29:16;;;;;;;7.15;6.45;;;;;;;;;;5015974;28;20046;-66
2022/04/17 03:31:44;;;;;;;9.27;7.50;;;;;;;;;;5016133;28;20104;-66
2022/04/17 03:34:10;;;;;;;8.65;7.50;;;;;;;;;;5015829;28;20073;-66
2022/04/17 03:36:39;;;;;;;7.80;7.00;;;;;;;;;;5016052;28;20054;-66
2022/04/17 03:39:06;;;;;;;8.45;7.45;;;;;;;;;;5015843;28;20050;-66
2022/04/17 03:41:32;;;;;;;8.27;7.45;;;;;;;;;;5015992;28;20079;-66
2022/04/17 03:43:58;;;;;;;9.07;8.15;;;;;;;;;;5015872;28;20053;-66
2022/04/17 03:46:24;;;;;;;8.40;7.47;;;;;;;;;;5015673;28;20489;-66
2022/04/17 03:48:50;;;;;;;8.68;7.82;;;;;;;;;;5016296;28;20175;-66
2022/04/17 03:51:16;;;;;;;8.82;7.93;;;;;;;;;;5015995;28;20038;-66
2022/04/17 03:53:42;;;;;;;9.02;7.82;;;;;;;;;;5015455;28;20045;-66
2022/04/17 03:56:08;;;;;;;8.15;7.35;;;;;;;;;;5015619;28;20081;-66
2022/04/17 03:58:34;;;;;;;9.15;8.25;;;;;;;;;;5015475;28;20112;-66
2022/04/17 04:01:01;;;;;;;8.45;7.65;;;;;;;;;;5014477;28;20042;-66
2022/04/17 04:03:27;;;;;;;8.43;7.63;;;;;;;;;;5014227;28;20482;-66
2022/04/17 04:05:53;;;;;;;8.15;7.35;;;;;;;;;;5015126;28;20042;-66
2022/04/17 04:08:19;;;;;;;8.68;7.78;;;;;;;;;;5015511;28;20081;-66
2022/04/17 04:10:45;;;;;;;9.50;8.18;;;;;;;;;;5015407;28;20449;-66
2022/04/17 04:13:11;;;;;;;8.45;7.65;;;;;;;;;;5014022;28;20589;-66
2022/04/17 04:15:37;;;;;;;8.95;8.05;;;;;;;;;;5014707;28;20121;-66
2022/04/17 04:18:03;;;;;;;8.48;7.68;;;;;;;;;;5015393;28;20400;-66
2022/04/17 04:20:29;;;;;;;8.70;7.90;;;;;;;;;;5015103;28;20050;-66
2022/04/17 04:22:57;;;;;;;9.20;8.05;;;;;;;;;;5014981;28;20045;-66
2022/04/17 04:25:23;;;;;;;8.98;8.05;;;;;;;;;;5015360;28;20046;-66
2022/04/17 04:30:33;;;;;;;9.10;8.20;;;;;;;;;;5014598;28;20042;-66
2022/04/17 04:33:00;;;;;;;9.32;8.40;;;;;;;;;;5014950;28;20401;-66
2022/04/17 04:35:29;;;;;;;9.18;7.60;;;;;;;;;;5014447;28;20057;-66
2022/04/17 04:38:00;;;;;;;9.10;8.20;;;;;;;;;;5014977;28;20413;-66
2022/04/17 04:40:28;;;;;;;8.32;7.53;;;;;;;;;;5014940;28;20049;-66
2022/04/17 04:42:58;;;;;;;8.88;7.97;;;;;;;;;;5014788;28;20056;-66
2022/04/17 04:48:09;;;;;;;8.68;7.75;;;;;;;;;;5014750;28;20045;-66
2022/04/17 04:50:35;;;;;;;8.57;7.68;;;;;;;;;;5014630;28;20042;-66
2022/04/17 04:53:01;;;;;;;8.13;7.32;;;;;;;;;;5014230;28;20125;-66
2022/04/17 04:55:28;;;;;;;8.57;7.72;;;;;;;;;;5014524;28;20057;-66
2022/04/17 04:57:54;;;;;;;8.40;7.60;;;;;;;;;;5014593;28;20057;-66
2022/04/17 05:00:20;;;;;;;8.30;7.40;;;;;;;;;;5014507;28;20129;-66
2022/04/17 05:02:46;;;;;;;9.15;8.18;;;;;;;;;;5014462;28;20121;-66
2022/04/17 05:05:12;;;;;;;8.32;7.53;;;;;;;;;;5014128;28;20472;-66
2022/04/17 05:07:38;;;;;;;7.93;7.13;;;;;;;;;;5014521;28;20042;-66
2022/04/17 05:10:05;;;;;;;8.15;7.30;;;;;;;;;;5014171;28;20507;-66
2022/04/17 05:12:31;;;;;;;7.95;7.15;;;;;;;;;;5014227;28;20075;-66
2022/04/17 05:14:57;;;;;;;7.60;6.45;;;;;;;;;;5014500;28;20489;-66
2022/04/17 05:17:23;;;;;;;7.85;7.05;;;;;;;;;;5029533;28;20034;-66
2022/04/17 05:19:49;;;;;;;8.00;7.20;;;;;;;;;;5014167;28;20405;-66
2022/04/17 05:22:20;;;;;;;8.07;7.28;;;;;;;;;;5013933;28;20038;-66
2022/04/17 05:24:46;;;;;;;7.00;6.30;;;;;;;;;;5013674;28;20100;-66
2022/04/17 05:27:12;;;;;;;7.25;6.55;;;;;;;;;;5013362;28;20041;-66
2022/04/17 05:29:40;;;;;;;7.40;6.60;;;;;;;;;;5013892;28;20406;-66
2022/04/17 05:32:06;;;;;;;7.35;6.60;;;;;;;;;;5014041;28;20046;-66
2022/04/17 05:34:32;;;;;;;7.32;6.63;;;;;;;;;;5013610;28;20053;-66
2022/04/17 05:36:58;;;;;;;8.35;6.68;;;;;;;;;;5013787;28;20068;-67
2022/04/17 05:39:24;;;;;;;7.38;6.63;;;;;;;;;;5013802;28;20479;-66
2022/04/17 05:41:51;;;;;;;8.18;6.78;;;;;;;;;;5014008;28;20136;-66
2022/04/17 05:44:17;;;;;;;8.20;6.80;;;;;;;;;;5012611;28;20101;-66
2022/04/17 05:46:43;;;;;;;7.35;6.32;;;;;;;;;;5013632;28;20069;-66
2022/04/17 05:49:09;;;;;;;7.50;6.80;;;;;;;;;;5013026;28;20424;-66
2022/04/17 05:51:39;;;;;;;7.20;6.50;;;;;;;;;;5012754;28;20099;-67
2022/04/17 05:54:06;;;;;;;6.90;6.20;;;;;;;;;;5013947;28;20034;-66
2022/04/17 05:56:32;;;;;;;6.95;5.93;;;;;;;;;;5013448;28;20401;-66
2022/04/17 05:59:00;;;;;;;7.10;6.40;;;;;;;;;;5013560;28;20160;-67
2022/04/17 06:01:26;;;;;;;6.35;5.78;;;;;;;;;;5013557;28;20049;-66
2022/04/17 06:03:52;;;;;;;6.80;6.10;;;;;;;;;;5013790;28;20100;-66
2022/04/17 06:06:18;;;;;;;7.35;6.43;;;;;;;;;;5014331;28;20034;-66
2022/04/17 06:08:45;;;;;;;7.00;6.18;;;;;;;;;;5013725;28;20543;-66
2022/04/17 06:11:11;;;;;;;6.53;5.82;;;;;;;;;;5013914;28;20088;-66
2022/04/17 06:13:37;;;;;;;6.20;5.60;;;;;;;;;;5013616;28;20037;-66
2022/04/17 06:16:03;;;;;;;7.22;6.00;;;;;;;;;;5013318;28;20519;-66
2022/04/17 06:18:29;;;;;;;6.22;5.63;;;;;;;;;;5012957;28;20432;-66
2022/04/17 06:20:55;;;;;;;6.45;5.85;;;;;;;;;;5013487;28;20566;-66
2022/04/17 06:23:21;;;;;;;7.20;6.15;;;;;;;;;;5015432;28;20045;-66
2022/04/17 06:25:47;;;;;;;6.32;5.72;;;;;;;;;;5013480;28;20046;-67
2022/04/17 06:28:13;;;;;;;6.25;5.65;;;;;;;;;;5013648;28;20099;-66
2022/04/17 06:30:39;;;;;;;6.32;5.72;;;;;;;;;;5013200;28;20045;-66
2022/04/17 06:33:05;;;;;;;6.20;5.60;;;;;;;;;;5011418;28;20142;-66
2022/04/17 06:35:31;;;;;;;6.85;5.97;;;;;;;;;;5013050;28;20073;-67
2022/04/17 06:37:59;;;;;;;6.53;5.60;;;;;;;;;;5013961;28;20037;-67
2022/04/17 06:40:29;;;;;;;7.57;5.47;;;;;;;;;;5009981;28;20051;-67
2022/04/17 06:43:00;;;;;;;7.13;5.90;;;;;;;;;;5009605;28;20053;-66
2022/04/17 06:45:26;;;;;;;6.43;5.43;;;;;;;;;;5017293;28;20559;-66
2022/04/17 06:47:53;;;;;;;6.93;5.60;;;;;;;;;;5012549;28;20038;-67
2022/04/17 06:50:20;;;;;;;5.82;5.30;;;;;;;;;;5013723;28;20056;-66
2022/04/17 06:52:47;;;;;;;8.88;5.20;;;;;;;;;;5016792;28;20046;-66
2022/04/17 06:55:13;;;;;;;6.47;5.40;;;;;;;;;;5016676;28;20489;-66
2022/04/17 06:57:44;;;;;;;7.32;5.15;;;;;;;;;;5015603;28;20054;-66
2022/04/17 07:00:10;;;;;;;6.68;5.43;;;;;;;;;;5032041;28;20057;-66
2022/04/17 07:02:37;;;;;;;6.20;5.60;;;;;;;;;;5016769;28;20038;-67
2022/04/17 07:05:03;;;;;;;5.90;5.22;;;;;;;;;;5016715;28;20049;-66
2022/04/17 07:07:29;;;;;;;7.30;5.07;;;;;;;;;;5015108;28;20049;-66
2022/04/17 07:09:55;;;;;;;5.80;4.90;;;;;;;;;;5016648;28;20045;-66
2022/04/17 07:12:22;;;;;;;5.47;4.82;;;;;;;;;;5016740;28;20049;-66
2022/04/17 07:14:49;;;;;;;5.38;4.40;;;;;;;;;;5016579;28;20050;-66
2022/04/17 07:17:14;;;;;;;5.63;5.00;;;;;;;;;;5018214;28;20077;-66
2022/04/17 07:19:40;;;;;;;7.28;4.95;;;;;;;;;;5016532;28;20077;-66
2022/04/17 07:22:07;;;;;;;5.50;4.88;;;;;;;;;;5016558;28;20424;-66
2022/04/17 07:24:33;;;;;;;5.65;5.00;;;;;;;;;;5017082;28;20038;-66
2022/04/17 07:27:00;;;;;;;8.30;4.70;;;;;;;;;;4998789;28;20401;-66
2022/04/17 07:29:27;;;;;;;6.88;4.68;;;;;;;;;;5016491;28;20050;-66
2022/04/17 07:31:53;;;;;;;5.70;4.68;;;;;;;;;;5015952;28;20038;-66
2022/04/17 07:34:22;;;;;;;6.47;4.53;;;;;;;;;;5016291;28;20045;-66
2022/04/17 07:36:52;;;;;;;5.10;4.07;;;;;;;;;;5020698;28;20081;-65
2022/04/17 07:39:18;;;;;;;6.97;4.40;;;;;;;;;;5017272;28;20042;-66
2022/04/17 07:41:46;;;;;;;5.53;4.90;;;;;;;;;;5016534;28;20048;-66
2022/04/17 07:44:12;;;;;;;6.85;4.25;;;;;;;;;;5015784;28;20820;-66
2022/04/17 07:46:42;;;;;;;5.43;4.25;;;;;;;;;;5018566;28;20096;-66
2022/04/17 07:49:08;;;;;;;7.65;4.60;;;;;;;;;;5015058;28;20101;-68
2022/04/17 07:51:35;;;;;;;6.43;4.45;;;;;;;;;;5014492;28;20041;-68
2022/04/17 07:54:01;;;;;;;6.30;4.45;;;;;;;;;;5012948;28;20042;-67
2022/04/17 07:56:28;;;;;;;5.60;4.10;;;;;;;;;;5015563;28;20121;-67
2022/04/17 07:58:54;;;;;;;5.40;4.32;;;;;;;;;;5014957;28;20054;-68
2022/04/17 08:01:20;;;;;;;6.32;4.18;;;;;;;;;;5015746;28;20050;-67
2022/04/17 08:03:46;;;;;;;6.10;4.50;;;;;;;;;;5015574;28;20038;-68
2022/04/17 08:06:15;;;;;;;5.30;4.40;;;;;;;;;;5015126;28;20042;-67
2022/04/17 08:08:41;;;;;;;7.38;4.05;;;;;;;;;;5014795;28;20413;-68
2022/04/17 08:11:08;;;;;;;4.50;4.10;;;;;;;;;;5015044;28;20600;-67
2022/04/17 08:13:34;;;;;;;5.78;4.03;;;;;;;;;;5017019;28;20048;-67
2022/04/17 08:16:01;;;;;;;5.05;4.07;;;;;;;;;;5018076;28;20030;-67
2022/04/17 08:18:28;;;;;;;5.70;3.92;;;;;;;;;;5015572;28;20053;-67
2022/04/17 08:20:54;;;;;;;6.82;4.32;;;;;;;;;;5017004;28;20049;-67
2022/04/17 08:23:20;;;;;;;5.15;3.70;;;;;;;;;;5013583;28;20042;-67
2022/04/17 08:25:46;;;;;;;7.25;4.32;;;;;;;;;;5014918;28;20050;-67
2022/04/17 08:28:13;;;;;;;3.97;3.58;;;;;;;;;;5014663;28;20050;-67
2022/04/17 08:30:39;;;;;;;5.57;3.83;;;;;;;;;;5007709;28;20046;-67
2022/04/17 08:33:06;;;;;;;5.05;3.50;;;;;;;;;;5028385;28;20045;-67
2022/04/17 08:35:32;;;;;;;4.15;3.75;;;;;;;;;;5013512;28;20049;-67
2022/04/17 08:38:01;;;;;;;4.45;3.50;;;;;;;;;;5014855;28;20128;-67
2022/04/17 08:40:28;;;;;;;5.80;3.70;;;;;;;;;;5014674;28;20054;-67
2022/04/17 08:42:54;;;;;;;5.40;4.05;;;;;;;;;;5014648;28;20042;-67
2022/04/17 08:45:20;;;;;;;5.78;3.80;;;;;;;;;;5014475;28;20508;-67
2022/04/17 08:47:47;;;;;;;4.85;3.83;;;;;;;;;;5014236;28;20038;-67
2022/04/17 08:50:14;;;;;;;4.80;3.53;;;;;;;;;;5014288;28;20052;-67
2022/04/17 08:52:43;;;;;;;4.60;3.75;;;;;;;;;;5013472;28;20042;-67
2022/04/17 08:55:09;;;;;;;4.82;3.42;;;;;;;;;;5005465;28;20050;-67
2022/04/17 08:57:35;;;;;;;4.30;3.40;;;;;;;;;;5012975;28;20054;-68
2022/04/17 09:00:03;;;;;;;4.53;3.50;;;;;;;;;;5013108;28;20048;-67
2022/04/17 09:02:29;;;;;;;5.18;3.60;;;;;;;;;;5013655;28;20046;-67
2022/04/17 09:04:55;;;;;;;6.13;3.47;;;;;;;;;;5014247;28;20041;-67
2022/04/17 09:07:21;;;;;;;3.75;3.35;;;;;;;;;;5013643;28;20461;-67
2022/04/17 09:09:52;;;;;;;4.28;3.65;;;;;;;;;;5010552;28;20145;-67
2022/04/17 09:12:21;;;;;;;4.10;3.38;;;;;;;;;;5013257;28;20449;-67
2022/04/17 09:14:48;;;;;;;5.20;3.60;;;;;;;;;;5013879;28;20505;-67
2022/04/17 09:17:14;;;;;;;3.90;3.22;;;;;;;;;;5028876;28;20049;-67
2022/04/17 09:19:40;;;;;;;5.10;3.78;;;;;;;;;;5014087;28;20056;-66
2022/04/17 09:22:07;;;;;;;4.93;3.50;;;;;;;;;;5013764;28;20045;-67
2022/04/17 09:24:37;;;;;;;5.63;3.00;;;;;;;;;;5013691;28;20111;-67
2022/04/17 09:27:04;;;;;;;6.13;3.30;;;;;;;;;;5013253;28;20428;-67
2022/04/17 09:29:33;;;;;;;6.22;3.50;;;;;;;;;;5013836;28;20052;-66
2022/04/17 09:32:05;;;;;;;5.75;3.30;;;;;;;;;;5013426;28;20057;-67
2022/04/17 09:34:44;;;;;;;5.75;3.35;;;;;;;;;;5012840;28;20125;-66
2022/04/17 09:37:17;;;;;;;6.07;3.08;;;;;;;;;;5013972;28;20052;-66
2022/04/17 09:39:44;;;;;;;5.75;3.42;;;;;;;;;;5013804;28;20125;-66
2022/04/17 09:42:10;;;;;;;4.30;3.42;;;;;;;;;;5013599;28;20046;-66
2022/04/17 09:44:37;;;;;;;5.35;3.63;;;;;;;;;;5013889;28;20046;-66
2022/04/17 09:47:04;;;;;;;4.80;3.30;;;;;;;;;;5013512;28;20049;-66
2022/04/17 09:49:30;;;;;;;4.43;3.30;;;;;;;;;;5013540;28;20074;-66
2022/04/17 09:52:09;;;;;;;5.13;3.40;;;;;;;;;;5013404;28;20472;-65
2022/04/17 09:54:35;;;;;;;7.82;3.50;;;;;;;;;;5011420;28;20069;-66
2022/04/17 09:57:02;;;;;;;5.63;3.70;;;;;;;;;;5013001;28;20042;-66
2022/04/17 09:59:28;;;;;;;5.75;3.90;;;;;;;;;;5012729;28;20045;-66
2022/04/17 10:01:58;;;;;;;5.80;4.10;;;;;;;;;;5009328;28;20043;-66
2022/04/17 10:04:25;;;;;;;4.63;3.60;;;;;;;;;;5008226;28;20579;-66
2022/04/17 10:06:51;;;;;;;4.43;3.50;;;;;;;;;;5012805;28;20412;-66
2022/04/17 10:09:18;;;;;;;5.85;3.47;;;;;;;;;;5010616;28;20244;-66
2022/04/17 10:11:44;;;;;;;4.53;3.67;;;;;;;;;;5001146;28;20088;-66
2022/04/17 10:14:10;;;;;;;5.63;3.67;;;;;;;;;;5012801;28;20045;-66
2022/04/17 10:16:41;;;;;;;5.18;3.78;;;;;;;;;;5013014;28;20084;-66
2022/04/17 10:19:10;;;;;;;6.93;3.63;;;;;;;;;;5013145;28;20049;-66
2022/04/17 10:21:36;;;;;;;5.32;3.53;;;;;;;;;;5012867;28;20057;-67
2022/04/17 10:24:03;;;;;;;5.45;3.65;;;;;;;;;;5012174;28;20048;-67
2022/04/17 10:26:35;;;;;;;8.18;3.47;;;;;;;;;;5013393;28;20464;-66
2022/04/17 10:29:02;;;;;;;3.88;3.47;;;;;;;;;;5013080;28;20045;-67
2022/04/17 10:31:37;;;;;;;5.65;4.40;;;;;;;;;;5013200;28;20069;-66
2022/04/17 10:34:23;;;;;;;5.30;4.80;;;;;;;;;;5011858;28;20046;-67
2022/04/17 10:37:01;;;;;;;6.60;6.00;;;;;;;;;;5012822;28;20042;-66
2022/04/17 10:39:32;;;;;;;7.80;7.10;;;;;;;;;;5011262;28;20069;-66
2022/04/17 10:41:59;;;;;;;6.78;6.18;;;;;;;;;;5012954;28;20505;-66
2022/04/17 10:44:32;;;;;;;6.45;5.85;;;;;;;;;;5012799;28;20121;-67
2022/04/17 10:47:03;;;;;;;5.45;4.85;;;;;;;;;;5013085;28;20096;-66
2022/04/17 10:49:29;;;;;;;5.38;4.30;;;;;;;;;;5012769;28;20042;-66
2022/04/17 10:51:59;;;;;;;4.85;4.30;;;;;;;;;;5012840;28;20084;-66
2022/04/17 10:54:26;;;;;;;5.13;4.07;;;;;;;;;;5012703;28;20107;-66
2022/04/17 10:56:55;;;;;;;5.68;3.95;;;;;;;;;;5012263;28;20513;-66
2022/04/17 10:59:22;;;;;;;4.35;3.95;;;;;;;;;;5012683;28;20084;-66
2022/04/17 11:01:53;;;;;;;4.55;3.50;;;;;;;;;;5012695;28;20493;-67
2022/04/17 11:04:18;;;;;;;4.50;3.63;;;;;;;;;;5010872;28;20042;-66
2022/04/17 11:06:45;;;;;;;6.90;3.70;;;;;;;;;;5012851;28;20049;-66
2022/04/17 11:09:15;;;;;;;5.43;3.50;;;;;;;;;;5012736;28;20085;-66
2022/04/17 11:11:45;;;;;;;3.30;3.00;;;;;;;;;;5012717;28;20409;-66
2022/04/17 11:14:11;;;;;;;4.47;3.15;;;;;;;;;;5012866;28;20072;-66
2022/04/17 11:16:48;;;;;;;4.45;3.33;;;;;;;;;;5012902;28;20046;-67
2022/04/17 11:19:15;;;;;;;4.90;3.78;;;;;;;;;;5012892;28;20061;-66
2022/04/17 11:21:45;;;;;;;5.63;3.00;;;;;;;;;;5012701;28;20132;-66
2022/04/17 11:24:11;;;;;;;3.45;3.13;;;;;;;;;;5013288;28;20499;-66
2022/04/17 11:26:53;;;;;;;3.25;2.92;;;;;;;;;;5010556;28;20042;-66
2022/04/17 11:29:38;;;;;;;4.72;3.30;;;;;;;;;;4996531;28;20051;-66
2022/04/17 11:32:19;;;;;;;5.60;3.28;;;;;;;;;;4996681;28;20070;-66
2022/04/17 11:34:52;;;;;;;3.55;2.97;;;;;;;;;;4996833;28;20039;-66
2022/04/17 11:37:24;;;;;;;4.38;3.25;;;;;;;;;;5002225;28;20049;-66
2022/04/17 11:39:51;;;;;;;4.00;2.80;;;;;;;;;;4996441;28;20046;-67
2022/04/17 11:42:18;;;;;;;3.40;2.83;;;;;;;;;;4996521;28;20047;-66
2022/04/17 11:44:44;;;;;;;4.20;3.13;;;;;;;;;;4995025;28;20401;-66
2022/04/17 11:47:20;;;;;;;4.10;2.88;;;;;;;;;;4996489;28;20070;-66
2022/04/17 11:49:47;;;;;;;3.85;2.70;;;;;;;;;;4996346;28;20042;-66
2022/04/17 11:52:14;;;;;;;3.38;2.75;;;;;;;;;;5014304;28;20133;-67
2022/04/17 11:54:41;;;;;;;3.58;2.70;;;;;;;;;;5016023;28;20045;-67
2022/04/17 11:57:07;;;;;;;4.53;3.00;;;;;;;;;;5015513;28;20065;-67
2022/04/17 11:59:54;;;;;;;6.13;2.88;;;;;;;;;;5015636;28;20042;-66
2022/04/17 12:02:21;;;;;;;3.50;2.50;;;;;;;;;;5015623;28;20065;-66
2022/04/17 12:04:48;;;;;;;3.42;2.47;;;;;;;;;;5015020;28;20448;-66
2022/04/17 12:07:18;;;;;;;3.22;2.33;;;;;;;;;;5014374;28;20070;-66
2022/04/17 12:09:44;;;;;;;3.65;2.50;;;;;;;;;;5015626;28;20054;-66
2022/04/17 12:12:32;;;;;;;3.50;2.65;;;;;;;;;;5015457;28;20125;-66
2022/04/17 12:15:00;;;;;;;3.35;2.55;;;;;;;;;;5014545;28;20070;-67
2022/04/17 12:17:26;;;;;;;4.50;2.50;;;;;;;;;;5014263;28;20042;-66
2022/04/17 12:19:52;;;;;;;4.38;2.50;;;;;;;;;;5015406;28;20041;-66
2022/04/17 12:22:18;;;;;;;3.97;2.60;;;;;;;;;;5014986;28;20046;-66
2022/04/17 12:24:45;;;;;;;2.83;2.53;;;;;;;;;;5015539;28;20050;-66
2022/04/17 12:27:13;;;;;;;3.88;2.50;;;;;;;;;;5014964;28;20064;-66
2022/04/17 12:29:40;;;;;;;2.75;2.40;;;;;;;;;;5015102;28;20073;-66
2022/04/17 12:32:16;;;;;;;3.33;2.20;;;;;;;;;;5015269;28;20052;-66
2022/04/17 12:34:45;;;;;;;;;;;;;;;;;;5030827;28;20085;-66
2022/04/17 12:37:20;;;;;;;3.58;2.30;;;;;;;;;;5014121;28;20004;-66
2022/04/17 12:39:46;;;;;;;3.58;2.40;;;;;;;;;;5014910;28;20101;-66
2022/04/17 12:42:16;;;;;;;2.80;2.50;;;;;;;;;;5014777;28;20038;-67
2022/04/17 12:44:42;;;;;;;3.53;2.20;;;;;;;;;;5014911;28;20038;-66
2022/04/17 12:47:12;;;;;;;4.10;2.25;;;;;;;;;;5014340;28;20528;-66
2022/04/17 12:49:38;;;;;;;3.58;2.30;;;;;;;;;;5018360;28;20038;-66
2022/04/17 12:52:04;;;;;;;3.08;2.40;;;;;;;;;;5015378;28;20034;-66
2022/04/17 12:54:31;;;;;;;3.08;2.15;;;;;;;;;;5014597;28;20042;-66
2022/04/17 12:57:05;;;;;;;3.30;2.30;;;;;;;;;;5014628;28;20042;-66
2022/04/17 12:59:47;;;;;;;2.60;2.40;;;;;;;;;;5013950;28;20057;-66
2022/04/17 13:02:15;;;;;;;3.67;2.40;;;;;;;;;;5013174;28;20148;-66
2022/04/17 13:04:48;;;;;;;4.68;2.33;;;;;;;;;;5014206;28;20397;-66
2022/04/17 13:07:15;;;;;;;4.32;2.33;;;;;;;;;;5014332;28;20046;-66
2022/04/17 13:09:53;;;;;;;4.03;2.15;;;;;;;;;;5033689;28;20053;-66
2022/04/17 13:12:32;;;;;;;2.90;2.05;;;;;;;;;;5021076;28;20049;-67
2022/04/17 13:14:58;;;;;;;3.45;2.20;;;;;;;;;;5013632;28;20045;-64
2022/04/17 13:17:24;;;;;;;4.40;2.67;;;;;;;;;;5014051;28;20042;-64
2022/04/17 13:19:51;;;;;;;3.20;2.40;;;;;;;;;;5014325;28;20049;-64
2022/04/17 13:22:17;;;;;;;3.53;2.08;;;;;;;;;;5014298;28;20042;-64
2022/04/17 13:24:44;;;;;;;3.55;2.22;;;;;;;;;;5013720;28;20556;-64
2022/04/17 13:27:11;;;;;;;4.45;2.20;;;;;;;;;;5013578;28;20125;-65
2022/04/17 13:29:37;;;;;;;2.72;2.10;;;;;;;;;;5013782;28;20100;-64
2022/04/17 13:32:04;;;;;;;6.07;2.10;;;;;;;;;;5013938;28;20046;-65
2022/04/17 13:34:33;;;;;;;4.57;2.10;;;;;;;;;;5013655;28;20050;-64
2022/04/17 13:39:44;;;;;;;3.28;2.10;;;;;;;;;;5013666;28;20058;-63
2022/04/17 13:42:10;;;;;;;2.67;2.03;;;;;;;;;;5011494;28;20053;-63
2022/04/17 13:44:39;;;;;;;4.60;2.35;;;;;;;;;;5028664;28;20050;-64
2022/04/17 13:47:06;;;;;;;3.92;2.10;;;;;;;;;;5013519;28;20077;-64
2022/04/17 13:49:32;;;;;;;5.13;2.20;;;;;;;;;;5013186;28;20041;-66
2022/04/17 13:51:58;;;;;;;4.55;2.38;;;;;;;;;;5013325;28;20121;-66
2022/04/17 13:54:25;;;;;;;4.00;2.05;;;;;;;;;;5012027;28;20050;-66
2022/04/17 13:56:51;;;;;;;2.95;2.08;;;;;;;;;;5013603;28;20041;-66
2022/04/17 13:59:17;;;;;;;2.70;2.10;;;;;;;;;;5013216;28;20084;-66
2022/04/17 14:01:44;;;;;;;3.05;2.08;;;;;;;;;;5013722;28;20080;-66
2022/04/17 14:04:10;;;;;;;3.90;2.20;;;;;;;;;;5013409;28;20041;-66
2022/04/17 14:06:37;;;;;;;3.83;2.08;;;;;;;;;;5013561;28;20056;-66
2022/04/17 14:09:03;;;;;;;3.97;2.05;;;;;;;;;;5013466;28;20117;-66
2022/04/17 14:11:29;;;;;;;4.00;1.90;;;;;;;;;;5013383;28;20069;-67
2022/04/17 14:13:57;;;;;;;2.80;1.90;;;;;;;;;;5013393;28;20050;-66
2022/04/17 14:16:23;;;;;;;2.45;1.90;;;;;;;;;;5013406;28;20050;-67
2022/04/17 14:18:49;;;;;;;3.30;2.03;;;;;;;;;;5013234;28;20046;-66
2022/04/17 14:21:15;;;;;;;2.65;1.88;;;;;;;;;;5013335;28;20045;-66
2022/04/17 14:23:41;;;;;;;2.88;1.80;;;;;;;;;;5012996;28;20409;-66
2022/04/17 14:26:07;;;;;;;1.98;1.77;;;;;;;;;;5013025;28;20189;-66
2022/04/17 14:28:33;;;;;;;3.28;2.00;;;;;;;;;;5012701;28;20541;-67
2022/04/17 14:31:01;;;;;;;3.40;2.10;;;;;;;;;;5013152;28;20132;-66
2022/04/17 14:33:27;;;;;;;2.17;1.88;;;;;;;;;;5013249;28;20146;-66
2022/04/17 14:35:57;;;;;;;3.15;1.88;;;;;;;;;;5013204;28;20470;-67
2022/04/17 14:38:23;;;;;;;3.53;1.95;;;;;;;;;;5012410;28;20046;-66
2022/04/17 14:40:49;;;;;;;2.65;2.15;;;;;;;;;;5012047;28;20124;-66
2022/04/17 14:43:15;;;;;;;4.57;2.40;;;;;;;;;;5013107;28;20125;-66
2022/04/17 14:45:41;;;;;;;3.00;2.20;;;;;;;;;;5012919;28;20481;-66
2022/04/17 14:48:07;;;;;;;3.80;2.20;;;;;;;;;;5012930;28;20139;-66
2022/04/17 14:50:33;;;;;;;4.22;2.25;;;;;;;;;;5027525;28;20401;-67
2022/04/17 14:53:00;;;;;;;3.03;2.00;;;;;;;;;;5013189;28;20044;-66
2022/04/17 14:55:26;;;;;;;3.25;2.20;;;;;;;;;;5012924;28;20046;-66
2022/04/17 14:57:52;;;;;;;3.78;2.20;;;;;;;;;;5012485;28;20116;-66
2022/04/17 15:00:18;;;;;;;4.88;2.20;;;;;;;;;;5015927;28;20050;-66
2022/04/17 15:02:44;;;;;;;3.67;2.22;;;;;;;;;;5015700;28;20088;-66
2022/04/17 15:05:10;;;;;;;4.10;2.17;;;;;;;;;;5015698;28;20441;-64